Dravosburg, PA (15034)

7:57 AM EDT on October 02, 2014 (GMT -0400)
Lower Gates Manor | Change Station
CLOSE
Current Station
Personal Weather Station
Location: Munhall, PA
Elevation: 1050 ft
Nearby Weather Stations

Elev 1050 ft 40.39 °N, 79.92 °W | Updated 1 minute ago

Fog
Fog
52.2 °F
Feels Like 52.2 °F
N
0.0
Wind Variable Wind from West

Today
High -- | Low -- °F
--% Chance of Precip.
Yesterday
High -- | Low -- °F
Precip. -- in
7:16 AM 7:00 PM
First Quarter, 58% visible
Pressure 30.01 in
Visibility 0.2 miles
Clouds
Dew Point 51 °F
Humidity 96%
Rainfall 0.00 in
Snow Depth Not available.
UV Not available.
Pollen 2.60 out of 12
Ozone Good
PM2.5 Moderate
Flu Activity Not available.
METAR KAGC 011153Z 00000KT M1/4SM R28/0700V0800FT FG VV001 13/12 A3000 RMK AO2 SLP162 70011 T01280117 10139 20128 53014

More Conditions Fewer Conditions

Pressure 30.01 in
Visibility 0.2 miles
Clouds
Dew Point 51 °F
Humidity 96%
Rainfall 0.00 in
Snow Depth Not available.
UV Not available.
Pollen 2.60 out of 12
Ozone Good
PM2.5 Moderate
Flu Activity Not available.
METAR KAGC 011153Z 00000KT M1/4SM R28/0700V0800FT FG VV001 13/12 A3000 RMK AO2 SLP162 70011 T01280117 10139 20128 53014

More Conditions Fewer Conditions

10-Day Weather Forecast

Almanac

Astronomy

Oct. 02, 2014 Rise Set
Actual Time 7:16 AM EDT 7:00 PM EDT
Civil Twilight 6:49 AM EDT 7:27 PM EDT
Nautical Twilight 6:18 AM EDT 7:58 PM EDT
Astronomical Twilight 5:46 AM EDT 8:30 PM EDT
Moon 3:05 PM EDT 12:31 AM EDT
Length of Visible Light 12h 37m
Length of Day
11h 43m
Tomorrow will be 2m 38s shorter.
First Quarter, 58% of the Moon is Illuminated
Today
First Quarter
Oct 8
Full
Oct 15
Last Quarter
Oct 23
New
Oct 30
First Quarter

Today's Extremes

State Highs State Lows

Community

WunderPhotos

Upload Photos

1,758,221 photos uploaded!

WunderBlogs® & News

Nearby

Air Quality

  Air Quality AQ Index Pollutant
Yesterday Moderate
PM2.5
Yesterday Good
OZONE
Current Moderate
PM2.5
Current Good
OZONE
Thursday Moderate
PM2.5
Friday Moderate
PM2.5

Snow Depth

Station Depth Elevation
No new snow has been reported.

Earthquake Activity

City Distance Mag. Time & Date
No recent earthquake activity has been reported nearby.
Minimum magnitude displayed is 2.5.

Coastal Water Temperatures

Place Temperature
No Stations Reporting

Nearby Weather Stations